createdAt,value
2018-07-11T00:00:38.141Z,609.1
2018-07-11T00:01:40.646Z,609.2
2018-07-11T00:02:42.547Z,609.1
2018-07-11T00:03:44.723Z,608.7
2018-07-11T00:04:46.907Z,608.5
2018-07-11T00:05:48.821Z,608.1
2018-07-11T00:06:50.997Z,607.9
2018-07-11T00:07:53.159Z,608
2018-07-11T00:08:55.315Z,607.8
2018-07-11T00:09:57.760Z,607.7
2018-07-11T00:11:00.228Z,607.2
2018-07-11T00:12:02.743Z,606.9
2018-07-11T00:13:05.194Z,606.9
2018-07-11T00:14:07.642Z,606.6
2018-07-11T00:15:10.100Z,607
2018-07-11T00:16:12.269Z,607.2
2018-07-11T00:17:14.729Z,606.9
2018-07-11T00:18:17.196Z,607
2018-07-11T00:19:19.390Z,606.6
2018-07-11T00:20:21.303Z,606.8
2018-07-11T00:21:23.225Z,606.7
2018-07-11T00:22:25.148Z,607.2
2018-07-11T00:23:27.326Z,607.5
2018-07-11T00:24:28.945Z,607.3
2018-07-11T00:25:31.130Z,607.8
2018-07-11T00:26:33.578Z,607.7
2018-07-11T00:27:36.017Z,607.5
2018-07-11T00:28:38.186Z,607.6
2018-07-11T00:29:40.634Z,607.8
2018-07-11T00:30:42.517Z,608
2018-07-11T00:31:44.696Z,607.8
2018-07-11T00:32:46.336Z,607.9
2018-07-11T00:33:48.256Z,607.8
2018-07-11T00:34:50.443Z,607.9
2018-07-11T00:35:52.905Z,608
2018-07-11T00:36:55.352Z,607.8
2018-07-11T00:37:57.528Z,607.8
2018-07-11T00:38:59.978Z,607.6
2018-07-11T00:40:02.155Z,607.9
2018-07-11T00:41:04.597Z,607.6
2018-07-11T00:42:06.538Z,607.2
2018-07-11T00:43:08.714Z,607.2
2018-07-11T00:44:10.605Z,607.4
2018-07-11T00:45:12.776Z,607.2
2018-07-11T00:46:15.235Z,607.2
2018-07-11T00:47:17.417Z,607.5
2018-07-11T00:48:19.591Z,607.6
2018-07-11T00:49:22.027Z,607.5
2018-07-11T00:50:24.470Z,607.5
2018-07-11T00:51:26.618Z,607.7
2018-07-11T00:52:29.072Z,607.3
2018-07-11T00:53:31.514Z,607.5
2018-07-11T00:54:33.957Z,607
2018-07-11T00:55:36.404Z,607.4
2018-07-11T00:56:38.580Z,607.2
2018-07-11T00:57:40.760Z,607.2
2018-07-11T00:58:43.291Z,607.5
2018-07-11T00:59:45.822Z,607.6
2018-07-11T01:00:47.766Z,608
2018-07-11T01:01:49.686Z,608.1
2018-07-11T01:02:51.607Z,608.2
2018-07-11T01:03:53.774Z,608.2
2018-07-11T01:04:56.216Z,608.6
2018-07-11T01:05:57.847Z,608.2
2018-07-11T01:07:00.417Z,607.9
2018-07-11T01:08:02.877Z,608.1
2018-07-11T01:09:05.327Z,607.9
2018-07-11T01:10:07.771Z,608.1
2018-07-11T01:11:10.222Z,608
2018-07-11T01:12:12.665Z,608.1
2018-07-11T01:13:14.850Z,608.1
2018-07-11T01:14:17.009Z,608.1
2018-07-11T01:15:19.454Z,608.2
2018-07-11T01:16:21.911Z,607.7
2018-07-11T01:17:24.090Z,608
2018-07-11T01:18:26.545Z,607.9
2018-07-11T01:19:28.726Z,607.9
2018-07-11T01:20:30.896Z,608.2
2018-07-11T01:21:33.075Z,608.1
2018-07-11T01:22:35.246Z,608.3
2018-07-11T01:23:37.152Z,608.3
2018-07-11T01:24:39.053Z,608.3
2018-07-11T01:25:41.204Z,608.4
2018-07-11T01:26:43.112Z,608.2
2018-07-11T01:27:45.555Z,608.1
2018-07-11T01:28:47.466Z,608.1
2018-07-11T01:29:49.687Z,608
2018-07-11T01:30:52.134Z,608.6
2018-07-11T01:31:54.587Z,608.3
2018-07-11T01:32:56.775Z,608.3
2018-07-11T01:33:59.218Z,608.4
2018-07-11T01:35:01.403Z,608.4
2018-07-11T01:36:03.556Z,608.2
2018-07-11T01:37:05.993Z,608.3
2018-07-11T01:38:08.165Z,608.4
2018-07-11T01:39:10.351Z,608.3
2018-07-11T01:40:12.528Z,608
2018-07-11T01:41:14.970Z,608.1
2018-07-11T01:42:17.141Z,608.4
2018-07-11T01:43:19.291Z,608.4
2018-07-11T01:44:21.472Z,608.5
2018-07-11T01:45:23.367Z,608.6
2018-07-11T01:46:24.992Z,608.9
2018-07-11T01:47:27.436Z,608.3
2018-07-11T01:48:29.311Z,608.3
2018-07-11T01:49:31.760Z,608.2
2018-07-11T01:50:34.201Z,608
2018-07-11T01:51:36.652Z,608
2018-07-11T01:52:39.090Z,607.8
2018-07-11T01:53:41.249Z,607.9
2018-07-11T01:54:43.156Z,608
2018-07-11T01:55:45.610Z,608.4
2018-07-11T01:56:48.059Z,608.2
2018-07-11T01:57:50.242Z,608.3
2018-07-11T01:58:52.694Z,608.7
2018-07-11T01:59:54.606Z,608.8
2018-07-11T02:00:56.495Z,609.4
2018-07-11T02:01:58.668Z,609.1
2018-07-11T02:03:01.117Z,608.9
2018-07-11T02:04:03.296Z,609
2018-07-11T02:05:05.461Z,608.9
2018-07-11T02:06:07.907Z,609.1
2018-07-11T02:07:09.810Z,609.4
2018-07-11T02:08:12.000Z,609.3
2018-07-11T02:09:14.166Z,609.3
2018-07-11T02:10:16.655Z,609.1
2018-07-11T02:11:19.096Z,609
2018-07-11T02:12:21.262Z,609
2018-07-11T02:13:23.712Z,609.4
2018-07-11T02:14:26.159Z,609
2018-07-11T02:15:28.337Z,609.6
2018-07-11T02:16:30.530Z,609.5
2018-07-11T02:17:32.450Z,609.6
2018-07-11T02:18:34.617Z,609.1
2018-07-11T02:19:37.059Z,608.8
2018-07-11T02:20:39.512Z,609.5
2018-07-11T02:21:41.974Z,609.5
2018-07-11T02:22:44.166Z,609.7
2018-07-11T02:23:46.342Z,609.5
2018-07-11T02:24:48.530Z,609.3
2018-07-11T02:25:50.963Z,609.2
2018-07-11T02:26:52.855Z,608.8
2018-07-11T02:27:55.309Z,608.9
2018-07-11T02:28:57.509Z,609
2018-07-11T02:29:59.689Z,608.5
2018-07-11T02:31:01.885Z,608.8
2018-07-11T02:32:03.519Z,609.2
2018-07-11T02:33:05.743Z,609
2018-07-11T02:34:08.189Z,609.4
2018-07-11T02:35:10.101Z,609.6
2018-07-11T02:36:12.553Z,609.2
2018-07-11T02:37:14.199Z,609.2
2018-07-11T02:38:16.392Z,609.1
2018-07-11T02:39:18.862Z,608.9
2018-07-11T02:40:21.048Z,609
2018-07-11T02:41:23.245Z,608.9
2018-07-11T02:42:25.138Z,608.8
2018-07-11T02:43:27.332Z,608.6
2018-07-11T02:44:29.206Z,609
2018-07-11T02:45:31.668Z,608.7
2018-07-11T02:46:33.846Z,609.4
2018-07-11T02:47:35.732Z,608.6
2018-07-11T02:48:37.642Z,609
2018-07-11T02:49:39.508Z,609
2018-07-11T02:50:41.683Z,609.6
2018-07-11T02:51:43.872Z,609.3
2018-07-11T02:52:46.308Z,609.8
2018-07-11T02:53:48.226Z,610.4
2018-07-11T02:54:50.674Z,610.6
2018-07-11T02:55:53.109Z,610.1
2018-07-11T02:56:55.558Z,610
2018-07-11T02:57:58.016Z,609.9
2018-07-11T02:59:00.178Z,609.5
2018-07-11T03:00:02.113Z,608.9
2018-07-11T03:01:04.296Z,609
2018-07-11T03:02:05.901Z,608.8
2018-07-11T03:03:08.081Z,608.7
2018-07-11T03:04:10.530Z,608.5
2018-07-11T03:05:12.721Z,608.5
2018-07-11T03:06:15.142Z,608
2018-07-11T03:07:17.325Z,608.5
2018-07-11T03:08:19.781Z,608.6
2018-07-11T03:09:21.932Z,608.7
2018-07-11T03:10:24.376Z,609.2
2018-07-11T03:11:26.562Z,608.8
2018-07-11T03:12:28.719Z,608.6
2018-07-11T03:13:31.154Z,608.8
2018-07-11T03:14:33.611Z,609.3
2018-07-11T03:15:36.063Z,609.8
2018-07-11T03:16:38.517Z,610.1
2018-07-11T03:17:40.690Z,609.7
2018-07-11T03:18:42.614Z,609.6
2018-07-11T03:19:44.789Z,609.6
2018-07-11T03:20:47.237Z,609.3
2018-07-11T03:21:49.687Z,609.5
2018-07-11T03:22:51.591Z,609.5
2018-07-11T03:23:53.786Z,609.5
2018-07-11T03:24:55.957Z,609.5
2018-07-11T03:25:58.414Z,609.3
2018-07-11T03:27:00.573Z,609.2
2018-07-11T03:28:02.475Z,609.1
2018-07-11T03:29:04.927Z,609.2
2018-07-11T03:30:07.385Z,608.9
2018-07-11T03:31:09.820Z,609.1
2018-07-11T03:32:12.272Z,609.1
2018-07-11T03:33:14.154Z,608.7
2018-07-11T03:34:15.779Z,609.1
2018-07-11T03:35:17.686Z,608.8
2018-07-11T03:36:20.128Z,609
2018-07-11T03:37:22.576Z,609.3
2018-07-11T03:38:24.451Z,608.9
2018-07-11T03:39:26.977Z,608.8
2018-07-11T03:40:28.583Z,608.6
2018-07-11T03:41:30.756Z,608.4
2018-07-11T03:42:33.204Z,608.3
2018-07-11T03:43:35.652Z,608.7
2018-07-11T03:44:38.099Z,608.7
2018-07-11T03:45:40.278Z,609
2018-07-11T03:46:42.725Z,609.1
2018-07-11T03:47:44.916Z,609.6
2018-07-11T03:48:47.360Z,609.3
2018-07-11T03:49:49.263Z,609.4
2018-07-11T03:50:51.705Z,608.8
2018-07-11T03:51:53.603Z,608.5
2018-07-11T03:52:56.036Z,608.7
2018-07-11T03:53:58.205Z,608.6
2018-07-11T03:55:00.653Z,608.7
2018-07-11T03:56:02.297Z,608.8
2018-07-11T03:57:04.752Z,608.7
2018-07-11T03:58:07.198Z,608.6
2018-07-11T03:59:09.641Z,608.4
2018-07-11T04:00:11.785Z,608.5
2018-07-11T04:01:14.268Z,608.2
2018-07-11T04:02:16.437Z,608.5
2018-07-11T04:03:18.890Z,608.4
2018-07-11T04:04:21.348Z,608.7
2018-07-11T04:05:23.502Z,608.8
2018-07-11T04:06:25.958Z,609.3
2018-07-11T04:07:28.395Z,609.6
2018-07-11T04:08:30.565Z,609.5
2018-07-11T04:09:32.468Z,609.5
2018-07-11T04:10:34.929Z,609.6
2018-07-11T04:11:37.386Z,610.1
2018-07-11T04:12:39.832Z,609.7
2018-07-11T04:13:42.279Z,609.8
2018-07-11T04:14:44.715Z,609.6
2018-07-11T04:15:46.889Z,608.9
2018-07-11T04:16:49.346Z,608.8
2018-07-11T04:17:51.537Z,608.8
2018-07-11T04:18:53.995Z,608.6
2018-07-11T04:19:56.439Z,608.3
2018-07-11T04:20:58.904Z,608.5
2018-07-11T04:22:01.077Z,608.7
2018-07-11T04:23:03.221Z,609.1
2018-07-11T04:24:05.665Z,609.1
2018-07-11T04:25:07.554Z,609.1
2018-07-11T04:26:09.738Z,608.9
2018-07-11T04:27:11.926Z,608.8
2018-07-11T04:28:14.370Z,608.8
2018-07-11T04:29:16.554Z,608.4
2018-07-11T04:30:18.750Z,608.4
2018-07-11T04:31:20.930Z,608.5
2018-07-11T04:32:23.107Z,608.4
2018-07-11T04:33:25.392Z,608.6
2018-07-11T04:34:27.570Z,608.5
2018-07-11T04:35:29.741Z,608.7
2018-07-11T04:36:32.190Z,608.3
2018-07-11T04:37:34.061Z,608.2
2018-07-11T04:38:36.508Z,608
2018-07-11T04:39:38.980Z,608.2
2018-07-11T04:40:41.428Z,608.3
2018-07-11T04:41:43.599Z,608.1
2018-07-11T04:42:45.513Z,608.3
2018-07-11T04:43:47.684Z,608.3
2018-07-11T04:44:50.127Z,608.5
2018-07-11T04:45:52.289Z,608.2
2018-07-11T04:46:54.193Z,608.1
2018-07-11T04:47:56.376Z,607.8
2018-07-11T04:48:58.130Z,608
2018-07-11T04:50:00.662Z,607.9
2018-07-11T04:51:02.944Z,607.7
2018-07-11T04:52:05.386Z,607.2
2018-07-11T04:53:07.580Z,607.1
2018-07-11T04:54:09.777Z,606.6
2018-07-11T04:55:12.243Z,606.3
2018-07-11T04:56:14.692Z,606.4
2018-07-11T04:57:16.609Z,606.7
2018-07-11T04:58:19.060Z,606.6
2018-07-11T04:59:21.529Z,607.1
2018-07-11T05:00:23.437Z,607.6
2018-07-11T05:01:25.625Z,607.1
2018-07-11T05:02:28.070Z,607.4
2018-07-11T05:03:30.547Z,607.7
2018-07-11T05:04:33.004Z,607.5
2018-07-11T05:05:35.187Z,607.5
2018-07-11T05:06:37.651Z,607.2
2018-07-11T05:07:40.096Z,607.2
2018-07-11T05:08:42.274Z,606.8
2018-07-11T05:09:44.440Z,606.7
2018-07-11T05:10:46.443Z,606.2
2018-07-11T05:11:48.946Z,606.3
2018-07-11T05:12:51.407Z,606.2
2018-07-11T05:13:53.300Z,606.3
2018-07-11T05:14:55.483Z,606
2018-07-11T05:15:57.461Z,605.9
2018-07-11T05:16:59.966Z,606
2018-07-11T05:18:02.190Z,605.8
2018-07-11T05:19:04.684Z,606.1
2018-07-11T05:20:07.149Z,606
2018-07-11T05:21:09.323Z,605.8
2018-07-11T05:22:11.791Z,605.5
2018-07-11T05:23:14.319Z,605.3
2018-07-11T05:24:16.756Z,605.2
2018-07-11T05:25:18.944Z,605.2
2018-07-11T05:26:21.084Z,605
2018-07-11T05:27:23.246Z,605.2
2018-07-11T05:28:25.425Z,605
2018-07-11T05:29:27.606Z,604.6
2018-07-11T05:30:29.787Z,604.8
2018-07-11T05:31:32.240Z,604.9
2018-07-11T05:32:34.680Z,604.7
2018-07-11T05:33:36.860Z,604.7
2018-07-11T05:34:39.324Z,604.5
2018-07-11T05:35:41.762Z,604.2
2018-07-11T05:36:43.913Z,604.1
2018-07-11T05:37:46.104Z,603.9
2018-07-11T05:38:48.552Z,603.6
2018-07-11T05:39:50.737Z,604.1
2018-07-11T05:40:52.922Z,603.6
2018-07-11T05:41:55.377Z,604
2018-07-11T05:42:57.580Z,603.6
2018-07-11T05:43:59.499Z,604.3
2018-07-11T05:45:01.968Z,604
2018-07-11T05:46:04.418Z,604
2018-07-11T05:47:06.612Z,604.3
2018-07-11T05:48:09.299Z,604.2
2018-07-11T05:49:11.408Z,604.8
2018-07-11T05:50:13.861Z,604.5
2018-07-11T05:51:16.322Z,604.4
2018-07-11T05:52:18.778Z,604.4
2018-07-11T05:53:21.222Z,604.5
2018-07-11T05:54:23.394Z,604
2018-07-11T05:55:25.863Z,604
2018-07-11T05:56:28.337Z,604.3
2018-07-11T05:57:30.842Z,604.1
2018-07-11T05:58:32.750Z,604
2018-07-11T05:59:35.235Z,603.9
2018-07-11T06:00:37.677Z,603.3
2018-07-11T06:01:40.141Z,603.7
2018-07-11T06:02:42.870Z,603.7
2018-07-11T06:03:45.041Z,603.4
2018-07-11T06:04:47.488Z,603.4
2018-07-11T06:05:49.933Z,603.3
2018-07-11T06:06:52.378Z,603.4
2018-07-11T06:07:54.548Z,603.4
2018-07-11T06:08:57.011Z,603.6
2018-07-11T06:09:59.455Z,603.4
2018-07-11T06:11:01.636Z,603.2
2018-07-11T06:12:04.092Z,603.3
2018-07-11T06:13:06.535Z,603.4
2018-07-11T06:14:08.989Z,603.6
2018-07-11T06:15:11.478Z,603.5
2018-07-11T06:16:14.082Z,602.7
2018-07-11T06:17:16.517Z,603
2018-07-11T06:18:18.962Z,602.8
2018-07-11T06:19:21.425Z,603.3
2018-07-11T06:20:23.303Z,603.1
2018-07-11T06:21:25.471Z,603.4
2018-07-11T06:22:27.380Z,603.2
2018-07-11T06:23:29.574Z,602.8
2018-07-11T06:24:31.721Z,603.3
2018-07-11T06:25:34.168Z,603.2
2018-07-11T06:26:36.639Z,602.9
2018-07-11T06:27:38.244Z,603.1
2018-07-11T06:28:40.157Z,602.7
2018-07-11T06:29:42.704Z,602.6
2018-07-11T06:30:44.675Z,602.3
2018-07-11T06:31:47.244Z,602.4
2018-07-11T06:32:49.804Z,602.1
2018-07-11T06:33:52.529Z,602.5
2018-07-11T06:34:54.997Z,602.1
2018-07-11T06:35:57.497Z,602.4
2018-07-11T06:37:00.034Z,602.3
2018-07-11T06:38:02.293Z,602.1
2018-07-11T06:39:04.489Z,602.4
2018-07-11T06:40:06.657Z,602
2018-07-11T06:41:09.129Z,602.5
2018-07-11T06:42:11.044Z,602.3
2018-07-11T06:43:13.490Z,602.5
2018-07-11T06:44:15.937Z,602.2
2018-07-11T06:45:18.389Z,602.2
2018-07-11T06:46:20.839Z,602.4
2018-07-11T06:47:22.727Z,602.1
2018-07-11T06:48:25.174Z,602.3
2018-07-11T06:49:27.337Z,602.2
2018-07-11T06:50:29.507Z,602.4
2018-07-11T06:51:31.429Z,602.3
2018-07-11T06:52:33.618Z,602.3
2018-07-11T06:53:35.801Z,602.3
2018-07-11T06:54:37.697Z,602.2
2018-07-11T06:55:40.141Z,602.2
2018-07-11T06:56:42.051Z,601.4
2018-07-11T06:57:44.791Z,601.6
2018-07-11T06:58:47.226Z,601.8
2018-07-11T06:59:49.669Z,601.6
2018-07-11T07:00:51.842Z,601.2
2018-07-11T07:01:54.283Z,601.2
2018-07-11T07:02:56.724Z,601.6
2018-07-11T07:03:58.900Z,601.3
2018-07-11T07:05:01.374Z,601.3
2018-07-11T07:06:03.236Z,600.8
2018-07-11T07:07:05.408Z,601
2018-07-11T07:08:07.586Z,600.8
2018-07-11T07:09:09.732Z,600.4
2018-07-11T07:10:11.886Z,600.5
2018-07-11T07:11:13.793Z,600.2
2018-07-11T07:12:16.257Z,600.2
2018-07-11T07:13:18.436Z,600.6
2018-07-11T07:14:20.617Z,600.1
2018-07-11T07:15:23.071Z,600.1
2018-07-11T07:16:25.337Z,600.3
2018-07-11T07:17:27.501Z,600.5
2018-07-11T07:18:29.681Z,600.1
2018-07-11T07:19:32.147Z,600.5
2018-07-11T07:20:33.764Z,599.7
2018-07-11T07:21:36.223Z,600.2
2018-07-11T07:22:39.001Z,600.5
2018-07-11T07:23:40.914Z,600.3
2018-07-11T07:24:43.105Z,600.2
2018-07-11T07:25:45.278Z,600.4
2018-07-11T07:26:47.476Z,600.8
2018-07-11T07:27:49.389Z,600.5
2018-07-11T07:28:51.549Z,600.6
2018-07-11T07:29:54.004Z,601
2018-07-11T07:30:55.915Z,600.5
2018-07-11T07:31:58.091Z,600.8
2018-07-11T07:33:00.262Z,600.7
2018-07-11T07:34:02.431Z,600.8
2018-07-11T07:35:04.886Z,600.7
2018-07-11T07:36:07.157Z,601
2018-07-11T07:37:09.073Z,600.8
2018-07-11T07:38:11.548Z,601.1
2018-07-11T07:39:13.988Z,601.1
2018-07-11T07:40:16.164Z,601
2018-07-11T07:41:18.073Z,600.8
2018-07-11T07:42:19.962Z,601
2018-07-11T07:43:22.411Z,601.2
2018-07-11T07:44:24.079Z,600.9
2018-07-11T07:45:26.330Z,600.7
2018-07-11T07:46:28.047Z,600.4
2018-07-11T07:47:30.296Z,600.9
2018-07-11T07:48:32.782Z,600.5
2018-07-11T07:49:34.715Z,600.7
2018-07-11T07:50:36.956Z,600.7
2018-07-11T07:51:39.128Z,600.7
2018-07-11T07:52:41.634Z,600.8
2018-07-11T07:53:43.792Z,600.7
2018-07-11T07:54:46.242Z,600.9
2018-07-11T07:55:48.705Z,600.6
2018-07-11T07:56:50.873Z,600.8
2018-07-11T07:57:53.359Z,600.8
2018-07-11T07:58:55.804Z,600.9
2018-07-11T07:59:58.263Z,600.7
2018-07-11T08:01:00.433Z,600.6
2018-07-11T08:02:02.877Z,600.9
2018-07-11T08:03:05.339Z,601.1
2018-07-11T08:04:07.787Z,601.3
2018-07-11T08:05:09.967Z,601.6
2018-07-11T08:06:12.134Z,600.8
2018-07-11T08:07:14.321Z,601.2
2018-07-11T08:08:16.489Z,601
2018-07-11T08:09:18.668Z,601.6
2018-07-11T08:10:20.571Z,601.6
2018-07-11T08:11:22.461Z,601.8
2018-07-11T08:12:24.918Z,601.8
2018-07-11T08:13:26.834Z,601.8
2018-07-11T08:14:29.281Z,601.3
2018-07-11T08:15:31.724Z,601.2
2018-07-11T08:16:33.602Z,601.4
2018-07-11T08:17:36.062Z,601.6
2018-07-11T08:18:38.501Z,601.4
2018-07-11T08:19:40.668Z,601.5
2018-07-11T08:20:42.836Z,601.8
2018-07-11T08:21:45.284Z,601.7
2018-07-11T08:22:47.429Z,601.6
2018-07-11T08:23:49.314Z,602.1
2018-07-11T08:24:51.501Z,602.1
2018-07-11T08:25:53.944Z,602.4
2018-07-11T08:26:55.860Z,602.4
2018-07-11T08:27:58.311Z,602.3
2018-07-11T08:29:00.212Z,602.5
2018-07-11T08:30:02.658Z,602.8
2018-07-11T08:31:04.582Z,602.4
2018-07-11T08:32:07.135Z,602.4
2018-07-11T08:33:09.095Z,602.6
2018-07-11T08:34:11.108Z,602.5
2018-07-11T08:35:14.114Z,602.6
2018-07-11T08:36:16.429Z,602.8
2018-07-11T08:37:18.337Z,602.9
2018-07-11T08:38:20.547Z,603.1
2018-07-11T08:39:22.442Z,602.7
2018-07-11T08:40:24.627Z,602.4
2018-07-11T08:41:26.814Z,602.7
2018-07-11T08:42:29.019Z,602.9
2018-07-11T08:43:31.458Z,602.6
2018-07-11T08:44:33.077Z,602.6
2018-07-11T08:45:35.524Z,602.7
2018-07-11T08:46:37.718Z,602.7
2018-07-11T08:47:40.316Z,603
2018-07-11T08:48:42.475Z,602.9
2018-07-11T08:49:44.099Z,602.7
2018-07-11T08:50:46.283Z,602.7
2018-07-11T08:51:48.733Z,602.9
2018-07-11T08:52:50.902Z,602.4
2018-07-11T08:53:53.074Z,602.1
2018-07-11T08:54:55.537Z,602
2018-07-11T08:55:57.740Z,602.3
2018-07-11T08:56:59.917Z,601.5
2018-07-11T08:58:02.077Z,601.8
2018-07-11T08:59:03.994Z,601.8
2018-07-11T09:00:06.447Z,601.8
2018-07-11T09:01:08.902Z,601.5
2018-07-11T09:02:10.793Z,601.8
2018-07-11T09:03:13.285Z,601.7
2018-07-11T09:04:15.459Z,601.8
2018-07-11T09:05:17.919Z,601.8
2018-07-11T09:06:20.095Z,601.6
2018-07-11T09:07:22.265Z,601.7
2018-07-11T09:08:24.438Z,602.2
2018-07-11T09:09:26.359Z,601.7
2018-07-11T09:10:28.951Z,601.9
2018-07-11T09:11:31.129Z,602.2
2018-07-11T09:12:33.570Z,602.1
2018-07-11T09:13:35.758Z,602.3
2018-07-11T09:14:38.208Z,602
2018-07-11T09:15:40.100Z,601.7
2018-07-11T09:16:42.545Z,601.9
2018-07-11T09:17:45.008Z,601.5
2018-07-11T09:18:47.188Z,601.9
2018-07-11T09:19:49.650Z,601.8
2018-07-11T09:20:52.110Z,601.7
2018-07-11T09:21:54.015Z,601.8
2018-07-11T09:22:56.460Z,602
2018-07-11T09:23:58.840Z,601.9
2018-07-11T09:25:01.018Z,601.9
2018-07-11T09:26:03.461Z,602.1
2018-07-11T09:27:05.642Z,601.9
2018-07-11T09:28:08.095Z,602
2018-07-11T09:29:09.994Z,602
2018-07-11T09:30:11.893Z,601.9
2018-07-11T09:31:14.066Z,601.4
2018-07-11T09:32:16.237Z,601.6
2018-07-11T09:33:17.860Z,601.9
2018-07-11T09:34:20.057Z,602.3
2018-07-11T09:35:22.264Z,601.9
2018-07-11T09:36:24.429Z,602.4
2018-07-11T09:37:26.927Z,602.3
2018-07-11T09:38:29.366Z,602.6
2018-07-11T09:39:31.810Z,602.3
2018-07-11T09:40:34.282Z,601.7
2018-07-11T09:41:36.451Z,602.4
2018-07-11T09:42:38.076Z,602.3
2018-07-11T09:43:40.516Z,602.3
2018-07-11T09:44:42.980Z,602.3
2018-07-11T09:45:44.593Z,602.5
2018-07-11T09:46:46.779Z,602.6
2018-07-11T09:47:49.230Z,602.5
2018-07-11T09:48:51.696Z,602.4
2018-07-11T09:49:53.885Z,602.2
2018-07-11T09:50:56.055Z,602.3
2018-07-11T09:51:58.237Z,602.7
2018-07-11T09:53:00.406Z,602.7
2018-07-11T09:54:02.299Z,602.7
2018-07-11T09:55:04.480Z,602.6
2018-07-11T09:56:06.959Z,603.2
2018-07-11T09:57:09.396Z,603.2
2018-07-11T09:58:11.281Z,602.9
2018-07-11T09:59:13.157Z,602.7
2018-07-11T10:00:15.618Z,602.7
2018-07-11T10:01:18.060Z,602.5
2018-07-11T10:02:20.237Z,602.6
2018-07-11T10:03:21.845Z,602.5
2018-07-11T10:04:24.006Z,602.5
2018-07-11T10:05:26.186Z,602.6
2018-07-11T10:06:28.366Z,602.6
2018-07-11T10:07:30.812Z,603
2018-07-11T10:08:32.732Z,602.9
2018-07-11T10:09:34.607Z,603.1
2018-07-11T10:10:36.783Z,603
2018-07-11T10:11:38.709Z,602.6
2018-07-11T10:12:41.037Z,602.6
2018-07-11T10:13:43.482Z,602.4
2018-07-11T10:14:45.926Z,602.6
2018-07-11T10:15:47.821Z,602.4
2018-07-11T10:16:50.007Z,602.4
2018-07-11T10:17:51.929Z,602.4
2018-07-11T10:18:54.091Z,602.6
2018-07-11T10:19:56.549Z,602.6
2018-07-11T10:20:59.004Z,602.8
2018-07-11T10:22:01.181Z,602.8
2018-07-11T10:23:03.335Z,602.7
2018-07-11T10:24:05.789Z,602.6
2018-07-11T10:25:07.947Z,602.4
2018-07-11T10:26:10.120Z,602.6
2018-07-11T10:27:12.301Z,602.2
2018-07-11T10:28:14.750Z,602.3
2018-07-11T10:29:17.200Z,602.3
2018-07-11T10:30:19.107Z,602.1
2018-07-11T10:31:21.561Z,602.2
2018-07-11T10:32:24.021Z,602
2018-07-11T10:33:26.466Z,602.3
2018-07-11T10:34:28.644Z,602.5
2018-07-11T10:35:30.792Z,603.3
2018-07-11T10:36:32.695Z,603.3
2018-07-11T10:37:34.577Z,603.4
2018-07-11T10:38:36.756Z,603.5
2018-07-11T10:39:38.948Z,603
2018-07-11T10:40:41.118Z,603.3
2018-07-11T10:41:43.306Z,602.8
2018-07-11T10:42:45.754Z,602.9
2018-07-11T10:43:47.930Z,603
2018-07-11T10:44:50.499Z,603.1
2018-07-11T10:45:52.944Z,603.4
2018-07-11T10:46:55.395Z,603.2
2018-07-11T10:47:57.571Z,603.1
2018-07-11T10:48:59.454Z,603.4
2018-07-11T10:50:01.911Z,603.3
2018-07-11T10:51:04.363Z,603.1
2018-07-11T10:52:06.818Z,603.2
2018-07-11T10:53:08.998Z,603.1
2018-07-11T10:54:11.191Z,602.6
2018-07-11T10:55:13.096Z,602.8
2018-07-11T10:56:15.281Z,602.9
2018-07-11T10:57:17.725Z,603.1
2018-07-11T10:58:19.609Z,603.7
2018-07-11T10:59:22.048Z,603.2
2018-07-11T11:01:29.416Z,603.6
2018-07-11T11:02:31.929Z,603
2018-07-11T11:03:34.383Z,602.7
2018-07-11T11:04:36.825Z,603
2018-07-11T11:05:39.284Z,602.5
2018-07-11T11:06:41.475Z,602
2018-07-11T11:07:43.625Z,602.4
2018-07-11T11:08:46.079Z,602.1
2018-07-11T11:09:48.260Z,602.4
2018-07-11T11:10:50.445Z,602.2
2018-07-11T11:11:52.617Z,602.3
2018-07-11T11:12:55.085Z,602.3
2018-07-11T11:13:57.538Z,602.1
2018-07-11T11:14:59.974Z,602.6
2018-07-11T11:16:01.855Z,602.3
2018-07-11T11:17:04.301Z,602.3
2018-07-11T11:18:06.757Z,602.7
2018-07-11T11:19:09.200Z,602
2018-07-11T11:20:11.094Z,602.1
2018-07-11T11:21:13.542Z,602.3
2018-07-11T11:22:15.203Z,601.9
2018-07-11T11:23:17.638Z,602.4
2018-07-11T11:24:19.838Z,602.6
2018-07-11T11:25:22.008Z,601.9
2018-07-11T11:26:24.516Z,601.6
2018-07-11T11:27:26.973Z,601.7
2018-07-11T11:28:29.424Z,601.8
2018-07-11T11:29:31.857Z,602.1
2018-07-11T11:30:34.049Z,601.8
2018-07-11T11:31:35.946Z,601.5
2018-07-11T11:32:38.121Z,601.7
2018-07-11T11:33:40.007Z,601.3
2018-07-11T11:34:42.177Z,601.3
2018-07-11T11:35:45.345Z,601.7
2018-07-11T11:36:47.817Z,601.7
2018-07-11T11:37:49.737Z,601.7
2018-07-11T11:38:51.635Z,602.1
2018-07-11T11:39:53.533Z,602.1
2018-07-11T11:40:55.732Z,602.6
2018-07-11T11:41:58.835Z,602.1
2018-07-11T11:43:01.508Z,602.5
2018-07-11T11:44:03.406Z,602.4
2018-07-11T11:45:05.884Z,602.3
2018-07-11T11:46:08.050Z,602.2
2018-07-11T11:47:09.951Z,602.4
2018-07-11T11:48:12.141Z,602
2018-07-11T11:49:14.587Z,602.3
2018-07-11T11:50:17.038Z,602
2018-07-11T11:51:19.528Z,601.8
2018-07-11T11:52:22.020Z,602.1
2018-07-11T11:53:24.468Z,602.3
2018-07-11T11:54:26.657Z,602.6
2018-07-11T11:55:28.848Z,602.7
2018-07-11T11:56:31.291Z,602.7
2018-07-11T11:57:33.748Z,602.3
2018-07-11T11:58:35.480Z,601.9
2018-07-11T11:59:37.575Z,601.9
2018-07-11T12:00:40.026Z,601.5
2018-07-11T12:01:42.418Z,601.4
2018-07-11T12:02:44.598Z,601.4
2018-07-11T12:03:46.803Z,601.4
2018-07-11T12:04:48.988Z,601.8
2018-07-11T12:05:51.439Z,601.7
2018-07-11T12:06:53.624Z,601.8
2018-07-11T12:07:56.082Z,602.1
2018-07-11T12:08:58.284Z,602.2
2018-07-11T12:10:00.735Z,602.4
2018-07-11T12:11:03.187Z,601.9
2018-07-11T12:12:05.392Z,601.8
2018-07-11T12:13:07.829Z,602.1
2018-07-11T12:14:10.289Z,602
2018-07-11T12:15:12.751Z,601.6
2018-07-11T12:16:14.657Z,601.9
2018-07-11T12:17:17.108Z,601.8
2018-07-11T12:18:19.297Z,602.2
2018-07-11T12:19:21.485Z,602
2018-07-11T12:20:23.108Z,602.6
2018-07-11T12:21:25.041Z,602.7
2018-07-11T12:22:26.920Z,603
2018-07-11T12:23:29.375Z,603.2
2018-07-11T12:24:31.821Z,603.5
2018-07-11T12:25:34.268Z,602.5
2018-07-11T12:26:36.149Z,602.2
2018-07-11T12:27:38.593Z,602
2018-07-11T12:28:40.779Z,602.1
2018-07-11T12:29:43.069Z,601.9
2018-07-11T12:30:45.289Z,601.6
2018-07-11T12:31:47.757Z,601.8
2018-07-11T12:32:50.301Z,601.7
2018-07-11T12:33:52.479Z,601.8
2018-07-11T12:34:54.670Z,602
2018-07-11T12:35:56.306Z,601.5
2018-07-11T12:36:58.761Z,601.9
2018-07-11T12:38:00.976Z,601.9
2018-07-11T12:39:03.154Z,601.8
2018-07-11T12:40:05.359Z,602
2018-07-11T12:41:07.807Z,601.5
2018-07-11T12:42:09.988Z,601.6
2018-07-11T12:43:11.889Z,601.6
2018-07-11T12:44:13.517Z,601.4
2018-07-11T12:45:15.704Z,601.6
2018-07-11T12:46:17.898Z,601.5
2018-07-11T12:47:20.338Z,601.7
2018-07-11T12:48:22.800Z,601.5
2018-07-11T12:49:24.962Z,601.7
2018-07-11T12:50:27.422Z,601.8
2018-07-11T12:51:29.603Z,601.5
2018-07-11T12:52:31.781Z,601.3
2018-07-11T12:53:33.702Z,601.6
2018-07-11T12:54:35.871Z,601.7
2018-07-11T12:55:38.066Z,601.1
2018-07-11T12:56:40.227Z,601.8
2018-07-11T12:57:42.429Z,601.8
2018-07-11T12:58:44.596Z,601.7
2018-07-11T12:59:46.766Z,601.9
2018-07-11T13:00:48.965Z,601.6
2018-07-11T13:01:51.426Z,601.9
2018-07-11T13:02:53.022Z,601.8
2018-07-11T13:03:55.214Z,601.6
2018-07-11T13:04:57.662Z,601.3
2018-07-11T13:06:00.130Z,601.8
2018-07-11T13:07:02.035Z,601.6
2018-07-11T13:08:04.186Z,601.8
2018-07-11T13:09:06.349Z,601.5
2018-07-11T13:10:08.798Z,601.8
2018-07-11T13:11:11.243Z,601.7
2018-07-11T13:12:13.394Z,602
2018-07-11T13:13:15.284Z,602.2
2018-07-11T13:14:17.766Z,602.1
2018-07-11T13:15:20.226Z,602.1
2018-07-11T13:16:23.442Z,601.8
2018-07-11T13:17:25.617Z,602.3
2018-07-11T13:18:27.525Z,602.4
2018-07-11T13:19:29.708Z,602.2
2018-07-11T13:20:32.156Z,602.5
2018-07-11T13:21:34.126Z,602
2018-07-11T13:22:36.569Z,602.3
2018-07-11T13:23:38.481Z,602.6
2018-07-11T13:24:40.106Z,602.4
2018-07-11T13:25:43.282Z,602.8
2018-07-11T13:26:45.825Z,602.8
2018-07-11T13:27:48.270Z,602.5